createdAt,value
2023-05-11T00:01:17.261Z,28.42
2023-05-11T00:03:46.614Z,28.83
2023-05-11T00:06:13.182Z,30.33
2023-05-11T00:08:39.669Z,28.50
2023-05-11T00:11:08.545Z,29.83
2023-05-11T00:13:35.115Z,27.83
2023-05-11T00:16:01.921Z,25.88
2023-05-11T00:18:28.454Z,26.27
2023-05-11T00:20:55.245Z,30.52
2023-05-11T00:23:21.713Z,28.75
2023-05-11T00:25:48.225Z,27.42
2023-05-11T00:28:14.718Z,29.90
2023-05-11T00:30:41.549Z,25.98
2023-05-11T00:33:08.073Z,31.25
2023-05-11T00:35:34.626Z,30.10
2023-05-11T00:38:01.170Z,30.15
2023-05-11T00:40:27.761Z,31.65
2023-05-11T00:42:54.295Z,32.67
2023-05-11T00:45:20.947Z,32.20
2023-05-11T00:47:47.581Z,32.42
2023-05-11T00:50:14.431Z,32.30
2023-05-11T00:52:42.194Z,31.92
2023-05-11T00:55:09.919Z,29.20
2023-05-11T00:57:37.034Z,29.88
2023-05-11T01:00:04.167Z,31.80
2023-05-11T01:02:31.292Z,30.10
2023-05-11T01:04:57.917Z,32.88
2023-05-11T01:07:28.757Z,31.58
2023-05-11T01:12:48.259Z,30.80
2023-05-11T01:15:40.069Z,29.77
2023-05-11T01:18:18.494Z,30.73
2023-05-11T01:20:47.416Z,31.08
2023-05-11T01:23:34.062Z,31.65
2023-05-11T01:26:38.053Z,34.13
2023-05-11T01:29:19.865Z,33.50
2023-05-11T01:31:50.499Z,32.30
2023-05-11T01:34:23.681Z,32.40
2023-05-11T01:36:54.738Z,31.08
2023-05-11T01:39:27.010Z,30.50
2023-05-11T01:41:54.367Z,31.17
2023-05-11T01:44:22.874Z,30.92
2023-05-11T01:46:50.162Z,31.80
2023-05-11T01:49:17.591Z,32.45
2023-05-11T01:51:45.683Z,30.75
2023-05-11T01:54:12.320Z,32.15
2023-05-11T01:56:40.738Z,31.65
2023-05-11T01:59:07.893Z,33.20
2023-05-11T02:01:35.798Z,31.85
2023-05-11T02:04:04.105Z,32.20
2023-05-11T02:06:31.917Z,32.97
2023-05-11T02:08:59.775Z,31.55
2023-05-11T02:11:26.911Z,31.67
2023-05-11T02:13:56.140Z,30.75
2023-05-11T02:16:24.451Z,31.80
2023-05-11T02:18:51.496Z,31.17
2023-05-11T02:21:19.945Z,30.50
2023-05-11T02:23:47.921Z,30.92
2023-05-11T02:26:15.449Z,31.02
2023-05-11T02:28:42.463Z,32.70
2023-05-11T02:31:21.080Z,32.58
2023-05-11T02:33:52.141Z,32.83
2023-05-11T02:36:21.746Z,31.23
2023-05-11T02:38:49.462Z,32.63
2023-05-11T02:41:18.469Z,31.42
2023-05-11T02:43:48.332Z,31.90
2023-05-11T02:46:17.200Z,32.20
2023-05-11T02:48:47.405Z,31.92
2023-05-11T02:51:15.763Z,32.10
2023-05-11T02:53:42.884Z,33.28
2023-05-11T02:56:09.662Z,33.78
2023-05-11T02:58:36.415Z,35.63
2023-05-11T03:01:07.005Z,35.42
2023-05-11T03:03:34.010Z,36.38
2023-05-11T03:06:00.685Z,36.35
2023-05-11T03:08:27.787Z,36.47
2023-05-11T03:10:58.784Z,36.72
2023-05-11T03:13:26.125Z,35.40
2023-05-11T03:15:53.113Z,37.30
2023-05-11T03:18:19.982Z,35.03
2023-05-11T03:20:47.513Z,37.00
2023-05-11T03:23:15.316Z,37.60
2023-05-11T03:25:43.130Z,34.45
2023-05-11T03:28:10.059Z,35.72
2023-05-11T03:30:37.616Z,34.95
2023-05-11T03:33:04.295Z,34.30
2023-05-11T03:35:31.961Z,35.55
2023-05-11T03:37:59.540Z,34.95
2023-05-11T03:40:28.031Z,35.55
2023-05-11T03:42:55.450Z,36.10
2023-05-11T03:45:23.086Z,35.13
2023-05-11T03:47:51.003Z,34.47
2023-05-11T03:50:18.008Z,37.45
2023-05-11T03:52:44.840Z,35.72
2023-05-11T03:55:11.593Z,35.45
2023-05-11T03:57:38.718Z,35.67
2023-05-11T04:00:06.022Z,35.50
2023-05-11T04:02:34.763Z,35.88
2023-05-11T04:05:01.455Z,37.47
2023-05-11T04:07:27.900Z,37.85
2023-05-11T04:09:54.714Z,38.13
2023-05-11T04:12:21.396Z,36.55
2023-05-11T04:14:47.909Z,37.83
2023-05-11T04:17:14.416Z,37.95
2023-05-11T04:19:40.846Z,35.72
2023-05-11T04:22:07.373Z,36.80
2023-05-11T04:24:33.901Z,38.70
2023-05-11T04:27:00.370Z,39.13
2023-05-11T04:29:26.839Z,36.28
2023-05-11T04:31:53.664Z,38.75
2023-05-11T04:34:21.221Z,37.58
2023-05-11T04:36:49.055Z,38.20
2023-05-11T04:39:19.125Z,39.05
2023-05-11T04:41:46.065Z,37.67
2023-05-11T04:44:12.610Z,36.47
2023-05-11T04:46:39.411Z,37.47
2023-05-11T04:49:06.066Z,37.40
2023-05-11T04:51:32.745Z,39.28
2023-05-11T04:53:59.664Z,37.63
2023-05-11T04:56:27.243Z,38.92
2023-05-11T04:58:53.736Z,38.00
2023-05-11T05:01:20.342Z,39.90
2023-05-11T05:03:50.348Z,38.22
2023-05-11T05:06:16.892Z,38.97
2023-05-11T05:08:43.506Z,38.47
2023-05-11T05:11:11.084Z,36.58
2023-05-11T05:13:37.859Z,37.08
2023-05-11T05:16:04.650Z,36.67
2023-05-11T05:18:31.237Z,38.47
2023-05-11T05:20:57.802Z,38.53
2023-05-11T05:23:24.373Z,36.88
2023-05-11T05:25:50.924Z,38.30
2023-05-11T05:28:17.648Z,36.85
2023-05-11T05:30:44.193Z,35.33
2023-05-11T05:33:10.947Z,36.67
2023-05-11T05:35:37.709Z,37.03
2023-05-11T05:38:04.334Z,36.67
2023-05-11T05:40:31.013Z,36.22
2023-05-11T05:42:57.640Z,35.67
2023-05-11T05:45:24.189Z,37.97
2023-05-11T05:47:51.903Z,37.42
2023-05-11T05:50:18.697Z,35.88
2023-05-11T05:52:45.812Z,37.17
2023-05-11T05:55:12.357Z,36.85
2023-05-11T05:57:38.912Z,37.83
2023-05-11T06:00:09.703Z,35.15
2023-05-11T06:05:02.991Z,34.03
2023-05-11T06:07:29.698Z,35.95
2023-05-11T06:09:56.318Z,34.97
2023-05-11T06:12:22.873Z,33.53
2023-05-11T06:14:49.368Z,32.72
2023-05-11T06:17:15.931Z,33.88
2023-05-11T06:19:42.738Z,32.08
2023-05-11T06:22:09.351Z,32.65
2023-05-11T06:24:35.918Z,33.22
2023-05-11T06:27:02.979Z,33.00
2023-05-11T06:29:29.565Z,32.42
2023-05-11T06:31:56.323Z,33.45
2023-05-11T06:34:22.862Z,31.63
2023-05-11T06:36:49.387Z,32.22
2023-05-11T06:39:16.095Z,34.58
2023-05-11T06:41:42.743Z,32.85
2023-05-11T06:44:09.393Z,31.50
2023-05-11T06:46:36.024Z,32.60
2023-05-11T06:49:02.916Z,35.55
2023-05-11T06:51:29.457Z,33.28
2023-05-11T06:53:55.989Z,33.78
2023-05-11T06:56:22.889Z,32.72
2023-05-11T06:58:49.420Z,35.97
2023-05-11T07:01:16.077Z,33.25
2023-05-11T07:03:42.671Z,31.25
2023-05-11T07:06:09.304Z,30.70
2023-05-11T07:08:35.973Z,31.85
2023-05-11T07:11:02.657Z,29.80
2023-05-11T07:13:29.136Z,30.20
2023-05-11T07:16:19.113Z,29.55
2023-05-11T07:18:45.900Z,31.40
2023-05-11T07:21:12.481Z,29.50
2023-05-11T07:23:38.989Z,25.38
2023-05-11T07:26:09.161Z,26.00
2023-05-11T07:28:36.846Z,26.85
2023-05-11T07:31:03.556Z,26.27
2023-05-11T07:33:30.235Z,28.70
2023-05-11T07:35:56.761Z,26.13
2023-05-11T07:38:23.268Z,28.25
2023-05-11T07:40:50.005Z,28.48
2023-05-11T07:43:16.551Z,24.67
2023-05-11T07:45:43.187Z,22.98
2023-05-11T07:48:09.822Z,25.65
2023-05-11T07:50:39.009Z,26.00
2023-05-11T07:53:08.239Z,26.05
2023-05-11T07:55:34.791Z,26.95
2023-05-11T07:58:01.321Z,28.50
2023-05-11T08:00:28.194Z,25.75
2023-05-11T08:02:55.563Z,25.73
2023-05-11T08:05:22.477Z,27.98
2023-05-11T08:07:50.143Z,28.23
2023-05-11T08:10:19.026Z,25.65
2023-05-11T08:12:45.739Z,26.77
2023-05-11T08:15:12.390Z,25.63
2023-05-11T08:17:39.029Z,25.30
2023-05-11T08:20:06.830Z,24.83
2023-05-11T08:22:33.488Z,24.88
2023-05-11T08:25:00.148Z,22.50
2023-05-11T08:27:26.805Z,22.10
2023-05-11T08:29:53.526Z,22.50
2023-05-11T08:32:20.074Z,22.98
2023-05-11T08:34:47.080Z,23.23
2023-05-11T08:37:13.825Z,23.70
2023-05-11T08:39:47.427Z,22.80
2023-05-11T08:42:17.591Z,24.23
2023-05-11T08:44:44.776Z,25.58
2023-05-11T08:47:22.584Z,22.13
2023-05-11T08:49:53.024Z,21.25
2023-05-11T08:52:20.132Z,21.63
2023-05-11T08:54:47.378Z,20.65
2023-05-11T08:57:14.544Z,19.95
2023-05-11T08:59:46.493Z,19.55
2023-05-11T09:02:18.253Z,19.42
2023-05-11T09:04:48.275Z,21.88
2023-05-11T09:07:17.406Z,21.00
2023-05-11T09:09:44.305Z,21.15
2023-05-11T09:12:11.736Z,22.85
2023-05-11T09:14:38.361Z,23.55
2023-05-11T09:17:05.227Z,24.88
2023-05-11T09:19:31.983Z,24.23
2023-05-11T09:22:01.461Z,26.65
2023-05-11T09:24:28.438Z,24.70
2023-05-11T09:27:10.398Z,24.13
2023-05-11T09:29:37.036Z,21.38
2023-05-11T09:32:04.388Z,20.92
2023-05-11T09:34:30.960Z,19.00
2023-05-11T09:36:57.634Z,19.85
2023-05-11T09:39:42.155Z,19.02
2023-05-11T09:42:21.425Z,19.83
2023-05-11T09:44:48.452Z,19.25
2023-05-11T09:47:19.425Z,18.35
2023-05-11T09:49:47.101Z,19.08
2023-05-11T09:52:15.809Z,21.48
2023-05-11T09:54:51.127Z,19.98
2023-05-11T09:57:24.988Z,19.92
2023-05-11T09:59:52.132Z,19.92
2023-05-11T10:02:24.043Z,17.98
2023-05-11T10:04:52.168Z,19.30
2023-05-11T10:07:28.195Z,18.17
2023-05-11T10:10:00.290Z,18.25
2023-05-11T10:12:27.467Z,22.67
2023-05-11T10:14:59.078Z,23.02
2023-05-11T10:17:26.008Z,23.58
2023-05-11T10:19:54.917Z,23.15
2023-05-11T10:22:21.541Z,23.42
2023-05-11T10:24:48.371Z,22.65
2023-05-11T10:27:15.587Z,23.23
2023-05-11T10:29:42.556Z,21.38
2023-05-11T10:32:10.779Z,21.75
2023-05-11T10:34:39.728Z,23.42
2023-05-11T10:37:06.668Z,24.73
2023-05-11T10:39:33.451Z,24.08
2023-05-11T10:42:29.273Z,23.75
2023-05-11T10:45:11.181Z,23.88
2023-05-11T10:47:56.540Z,24.08
2023-05-11T10:50:43.302Z,25.50
2023-05-11T10:53:19.239Z,23.50
2023-05-11T10:56:06.286Z,23.92
2023-05-11T10:58:54.868Z,22.45
2023-05-11T11:01:26.712Z,20.08
2023-05-11T11:03:57.902Z,19.25
2023-05-11T11:06:24.833Z,18.65
2023-05-11T11:08:56.544Z,20.30
2023-05-11T11:11:33.937Z,18.60
2023-05-11T11:14:02.955Z,18.17
2023-05-11T11:16:30.255Z,20.08
2023-05-11T11:19:31.059Z,19.20
2023-05-11T11:22:00.597Z,17.10
2023-05-11T11:24:39.425Z,19.30
2023-05-11T11:27:06.777Z,15.27
2023-05-11T11:29:37.661Z,13.15
2023-05-11T11:32:19.545Z,12.85
2023-05-11T11:34:47.221Z,12.30
2023-05-11T11:37:15.175Z,11.50
2023-05-11T11:39:41.823Z,10.77
2023-05-11T11:42:09.979Z,11.25
2023-05-11T11:44:37.676Z,12.63
2023-05-11T11:47:19.954Z,14.88
2023-05-11T11:49:51.542Z,12.95
2023-05-11T11:52:27.529Z,15.25
2023-05-11T11:54:55.952Z,15.30
2023-05-11T11:57:34.829Z,15.02
2023-05-11T12:00:05.611Z,16.27
2023-05-11T12:05:08.179Z,13.95
2023-05-11T12:07:36.145Z,13.95
2023-05-11T12:10:04.036Z,13.43
2023-05-11T12:12:31.017Z,16.45
2023-05-11T12:14:59.943Z,17.67
2023-05-11T12:17:29.594Z,19.67
2023-05-11T12:20:12.348Z,19.48
2023-05-11T12:22:38.945Z,19.00
2023-05-11T12:25:06.510Z,20.52
2023-05-11T12:27:33.311Z,20.38
2023-05-11T12:30:00.765Z,19.85
2023-05-11T12:32:29.684Z,19.08
2023-05-11T12:35:04.337Z,19.48
2023-05-11T12:37:31.344Z,21.90
2023-05-11T12:39:58.783Z,20.70
2023-05-11T12:42:25.938Z,20.33
2023-05-11T12:44:52.798Z,19.92
2023-05-11T12:47:19.432Z,19.77
2023-05-11T12:49:46.241Z,19.50
2023-05-11T12:52:14.046Z,18.48
2023-05-11T12:54:43.500Z,19.40
2023-05-11T12:57:26.444Z,20.20
2023-05-11T13:00:25.629Z,19.77
2023-05-11T13:02:54.186Z,20.98
2023-05-11T13:05:25.664Z,19.65
2023-05-11T13:08:05.800Z,18.15
2023-05-11T13:10:32.330Z,16.73
2023-05-11T13:12:59.387Z,16.63
2023-05-11T13:15:25.994Z,19.27
2023-05-11T13:18:02.963Z,15.88
2023-05-11T13:20:32.081Z,14.68
2023-05-11T13:23:28.179Z,14.45
2023-05-11T13:25:55.056Z,14.05
2023-05-11T13:28:24.340Z,16.33
2023-05-11T13:30:52.285Z,13.77
2023-05-11T13:33:19.074Z,11.02
2023-05-11T13:35:46.111Z,12.68
2023-05-11T13:38:12.798Z,10.10
2023-05-11T13:40:39.559Z,9.75
2023-05-11T13:43:06.512Z,8.63
2023-05-11T13:45:33.199Z,8.30
2023-05-11T13:47:59.767Z,8.68
2023-05-11T13:50:26.713Z,8.95
2023-05-11T13:52:53.884Z,11.90
2023-05-11T13:55:21.350Z,11.38
2023-05-11T13:57:48.245Z,10.00
2023-05-11T14:00:15.424Z,9.82
2023-05-11T14:02:43.644Z,9.18
2023-05-11T14:05:10.340Z,9.07
2023-05-11T14:07:47.111Z,7.70
2023-05-11T14:10:19.306Z,8.95
2023-05-11T14:15:12.710Z,8.63
2023-05-11T14:17:42.677Z,9.52
2023-05-11T14:20:13.275Z,9.27
2023-05-11T14:22:41.025Z,9.27
2023-05-11T14:25:08.117Z,8.65
2023-05-11T14:27:34.719Z,8.88
2023-05-11T14:30:01.247Z,8.73
2023-05-11T14:32:27.860Z,9.52
2023-05-11T14:34:54.453Z,10.90
2023-05-11T14:37:21.127Z,10.63
2023-05-11T14:39:47.669Z,10.43
2023-05-11T14:42:14.245Z,10.18
2023-05-11T14:44:41.728Z,10.00
2023-05-11T14:47:08.720Z,8.93
2023-05-11T14:49:35.224Z,9.45
2023-05-11T14:52:01.995Z,8.48
2023-05-11T14:54:28.524Z,9.70
2023-05-11T14:56:56.628Z,8.95
2023-05-11T14:59:27.273Z,8.30
2023-05-11T15:01:53.861Z,8.20
2023-05-11T15:04:20.564Z,8.80
2023-05-11T15:06:47.156Z,7.40
2023-05-11T15:09:13.908Z,7.25
2023-05-11T15:11:40.555Z,7.80
2023-05-11T15:14:07.215Z,7.55
2023-05-11T15:16:33.817Z,7.47
2023-05-11T15:19:00.546Z,7.03
2023-05-11T15:21:27.475Z,6.20
2023-05-11T15:23:55.054Z,7.50
2023-05-11T15:26:22.325Z,7.75
2023-05-11T15:28:48.924Z,6.72
2023-05-11T15:31:15.699Z,6.88
2023-05-11T15:33:42.728Z,6.78
2023-05-11T15:36:13.867Z,6.70
2023-05-11T15:38:41.375Z,7.18
2023-05-11T15:41:08.182Z,7.05
2023-05-11T15:43:35.166Z,7.45
2023-05-11T15:46:03.664Z,7.55
2023-05-11T15:48:30.491Z,7.45
2023-05-11T15:51:01.180Z,6.68
2023-05-11T15:55:55.657Z,8.52
2023-05-11T15:58:22.894Z,6.95
2023-05-11T16:00:49.620Z,6.85
2023-05-11T16:03:16.716Z,6.68
2023-05-11T16:05:44.458Z,7.15
2023-05-11T16:08:11.287Z,7.13
2023-05-11T16:10:37.976Z,6.70
2023-05-11T16:13:04.556Z,8.15
2023-05-11T16:15:32.026Z,8.70
2023-05-11T16:17:59.286Z,8.23
2023-05-11T16:20:27.530Z,11.88
2023-05-11T16:22:54.167Z,8.45
2023-05-11T16:25:20.982Z,8.23
2023-05-11T16:27:47.525Z,7.38
2023-05-11T16:30:22.414Z,8.20
2023-05-11T16:32:51.625Z,9.63
2023-05-11T16:35:18.456Z,8.57
2023-05-11T16:37:44.980Z,7.97
2023-05-11T16:40:11.782Z,8.70
2023-05-11T16:42:38.446Z,9.52
2023-05-11T16:45:05.452Z,10.00
2023-05-11T16:47:32.059Z,8.80
2023-05-11T16:49:58.670Z,8.57
2023-05-11T16:52:25.186Z,9.30
2023-05-11T16:54:51.895Z,9.00
2023-05-11T16:57:18.496Z,9.57
2023-05-11T16:59:45.190Z,9.02
2023-05-11T17:02:12.221Z,8.68
2023-05-11T17:04:38.883Z,8.32
2023-05-11T17:07:05.482Z,7.40
2023-05-11T17:09:32.386Z,7.97
2023-05-11T17:11:59.061Z,6.38
2023-05-11T17:14:25.611Z,6.40
2023-05-11T17:16:52.551Z,5.60
2023-05-11T17:19:19.276Z,5.95
2023-05-11T17:21:45.989Z,5.20
2023-05-11T17:24:13.002Z,6.07
2023-05-11T17:26:47.834Z,5.90
2023-05-11T17:29:16.576Z,6.72
2023-05-11T17:31:43.345Z,6.50
2023-05-11T17:34:10.557Z,6.55
2023-05-11T17:36:37.401Z,5.47
2023-05-11T17:39:05.035Z,5.70
2023-05-11T17:41:31.976Z,6.00
2023-05-11T17:43:58.504Z,5.78
2023-05-11T17:46:25.403Z,5.28
2023-05-11T17:48:53.114Z,6.13
2023-05-11T17:51:20.491Z,6.07
2023-05-11T17:53:47.652Z,6.30
2023-05-11T17:56:15.656Z,5.88
2023-05-11T17:58:45.580Z,5.97
2023-05-11T18:01:16.714Z,5.95
2023-05-11T18:03:43.961Z,6.60
2023-05-11T18:06:10.899Z,6.32
2023-05-11T18:08:37.606Z,6.32
2023-05-11T18:11:04.655Z,6.32
2023-05-11T18:13:31.626Z,7.18
2023-05-11T18:15:59.418Z,10.20
2023-05-11T18:18:26.178Z,8.73
2023-05-11T18:20:52.817Z,7.78
2023-05-11T18:23:19.414Z,7.80
2023-05-11T18:25:45.975Z,7.30
2023-05-11T18:28:12.550Z,7.93
2023-05-11T18:30:39.289Z,7.53
2023-05-11T18:33:06.055Z,7.93
2023-05-11T18:35:32.668Z,9.02
2023-05-11T18:37:59.704Z,7.82
2023-05-11T18:40:27.317Z,8.57
2023-05-11T18:42:54.267Z,8.35
2023-05-11T18:45:20.800Z,12.48
2023-05-11T18:47:47.592Z,14.93
2023-05-11T18:50:14.720Z,11.38
2023-05-11T18:52:41.390Z,10.57
2023-05-11T18:55:11.869Z,9.50
2023-05-11T18:57:39.683Z,8.90
2023-05-11T19:00:06.853Z,9.20
2023-05-11T19:02:34.135Z,8.52
2023-05-11T19:05:01.382Z,9.05
2023-05-11T19:07:28.667Z,8.25
2023-05-11T19:09:55.564Z,8.05
2023-05-11T19:12:22.298Z,8.45
2023-05-11T19:14:48.887Z,9.38
2023-05-11T19:17:15.474Z,10.80
2023-05-11T19:19:42.089Z,8.98
2023-05-11T19:22:09.317Z,10.00
2023-05-11T19:24:36.210Z,10.52
2023-05-11T19:27:07.661Z,8.85
2023-05-11T19:29:35.396Z,9.18
2023-05-11T19:32:02.505Z,10.50
2023-05-11T19:34:29.190Z,10.00
2023-05-11T19:36:55.680Z,9.65
2023-05-11T19:39:22.219Z,10.38
2023-05-11T19:41:48.883Z,10.30
2023-05-11T19:44:15.547Z,11.05
2023-05-11T19:46:46.615Z,12.02
2023-05-11T19:49:15.331Z,12.05
2023-05-11T19:51:42.576Z,11.85
2023-05-11T19:54:10.444Z,12.10
2023-05-11T19:56:37.037Z,12.80
2023-05-11T19:59:04.636Z,11.75
2023-05-11T20:01:31.346Z,11.70
2023-05-11T20:03:58.035Z,11.57
2023-05-11T20:06:25.585Z,12.75
2023-05-11T20:08:52.961Z,11.68
2023-05-11T20:11:20.256Z,12.18
2023-05-11T20:13:47.833Z,13.40
2023-05-11T20:16:14.576Z,12.55
2023-05-11T20:18:41.338Z,12.63
2023-05-11T20:21:07.928Z,12.88
2023-05-11T20:23:35.943Z,12.55
2023-05-11T20:26:04.345Z,11.43
2023-05-11T20:28:31.194Z,13.25
2023-05-11T20:30:57.756Z,14.43
2023-05-11T20:35:53.847Z,13.30
2023-05-11T20:38:20.657Z,15.13
2023-05-11T20:40:47.357Z,17.02
2023-05-11T20:43:14.968Z,15.02
2023-05-11T20:45:42.317Z,15.88
2023-05-11T20:48:09.170Z,16.40
2023-05-11T20:50:35.739Z,15.20
2023-05-11T20:53:02.335Z,16.65
2023-05-11T20:55:28.915Z,17.65
2023-05-11T20:57:55.579Z,17.02
2023-05-11T21:00:22.972Z,17.15
2023-05-11T21:02:49.943Z,16.98
2023-05-11T21:05:16.641Z,16.42
2023-05-11T21:07:43.195Z,17.70
2023-05-11T21:10:12.371Z,17.63
2023-05-11T21:12:38.878Z,20.45
2023-05-11T21:15:07.329Z,20.23
2023-05-11T21:17:35.844Z,18.88
2023-05-11T21:20:05.207Z,18.13
2023-05-11T21:22:35.820Z,20.27
2023-05-11T21:25:03.938Z,18.85
2023-05-11T21:27:30.963Z,19.77
2023-05-11T21:29:57.693Z,19.95
2023-05-11T21:32:24.280Z,19.17
2023-05-11T21:34:54.048Z,20.17
2023-05-11T21:37:21.188Z,18.77
2023-05-11T21:39:48.276Z,20.02
2023-05-11T21:42:14.939Z,20.13
2023-05-11T21:44:41.540Z,20.80
2023-05-11T21:47:08.051Z,20.63
2023-05-11T21:49:36.603Z,22.30
2023-05-11T21:52:03.263Z,21.48
2023-05-11T21:54:29.719Z,22.45
2023-05-11T21:56:56.408Z,22.92
2023-05-11T21:59:26.637Z,23.02
2023-05-11T22:01:54.789Z,21.88
2023-05-11T22:04:21.641Z,22.48
2023-05-11T22:06:48.272Z,22.23
2023-05-11T22:09:15.181Z,19.38
2023-05-11T22:11:41.664Z,21.30
2023-05-11T22:14:08.202Z,20.20
2023-05-11T22:16:34.814Z,21.05
2023-05-11T22:19:01.580Z,21.08
2023-05-11T22:21:28.299Z,21.95
2023-05-11T22:23:55.478Z,20.98
2023-05-11T22:26:22.069Z,22.30
2023-05-11T22:28:48.542Z,20.10
2023-05-11T22:31:15.103Z,20.73
2023-05-11T22:33:41.801Z,22.52
2023-05-11T22:36:08.449Z,19.20
2023-05-11T22:38:38.065Z,21.08
2023-05-11T22:41:05.219Z,21.80
2023-05-11T22:43:31.901Z,20.00
2023-05-11T22:45:58.512Z,22.58
2023-05-11T22:48:25.080Z,20.48
2023-05-11T22:50:51.766Z,20.30
2023-05-11T22:53:19.893Z,19.98
2023-05-11T22:55:47.490Z,19.13
2023-05-11T22:58:14.152Z,17.30
2023-05-11T23:00:40.678Z,18.63
2023-05-11T23:03:08.260Z,17.85
2023-05-11T23:05:34.955Z,17.50
2023-05-11T23:08:01.598Z,17.70
2023-05-11T23:10:28.776Z,16.67
2023-05-11T23:12:56.120Z,17.20
2023-05-11T23:15:22.624Z,15.77
2023-05-11T23:17:49.408Z,15.38
2023-05-11T23:20:16.833Z,14.05
2023-05-11T23:22:43.616Z,15.23
2023-05-11T23:25:10.504Z,16.33
2023-05-11T23:27:37.078Z,14.73
2023-05-11T23:30:04.195Z,13.63
2023-05-11T23:32:31.036Z,13.10
2023-05-11T23:34:57.736Z,12.20
2023-05-11T23:37:24.364Z,12.50
2023-05-11T23:39:51.108Z,12.93
2023-05-11T23:42:17.648Z,12.02
2023-05-11T23:44:44.173Z,13.30
2023-05-11T23:47:10.780Z,13.85
2023-05-11T23:49:37.349Z,17.27
2023-05-11T23:52:04.173Z,20.30
2023-05-11T23:54:30.720Z,19.80
2023-05-11T23:56:57.248Z,23.02
2023-05-11T23:59:23.717Z,25.70
